sensor_id;sensor_type;location;lat;lon;timestamp;P1;durP1;ratioP1;P2;durP2;ratioP2
51368;SDS011;37459;51.416;5.502;2022-11-22T00:02:23;10.30;;;4.90;;
51368;SDS011;37459;51.416;5.502;2022-11-22T00:04:50;9.30;;;4.55;;
51368;SDS011;37459;51.416;5.502;2022-11-22T00:07:16;7.18;;;4.15;;
51368;SDS011;37459;51.416;5.502;2022-11-22T00:09:43;6.97;;;3.55;;
51368;SDS011;37459;51.416;5.502;2022-11-22T00:12:09;8.88;;;4.07;;
51368;SDS011;37459;51.416;5.502;2022-11-22T00:14:37;8.80;;;4.05;;
51368;SDS011;37459;51.416;5.502;2022-11-22T00:17:04;10.95;;;4.32;;
51368;SDS011;37459;51.416;5.502;2022-11-22T00:19:30;7.82;;;4.10;;
51368;SDS011;37459;51.416;5.502;2022-11-22T00:21:57;15.27;;;4.03;;
51368;SDS011;37459;51.416;5.502;2022-11-22T00:24:23;9.57;;;4.07;;
51368;SDS011;37459;51.416;5.502;2022-11-22T00:26:50;7.22;;;3.83;;
51368;SDS011;37459;51.416;5.502;2022-11-22T00:29:17;8.48;;;4.30;;
51368;SDS011;37459;51.416;5.502;2022-11-22T00:31:44;9.52;;;4.03;;
51368;SDS011;37459;51.416;5.502;2022-11-22T00:34:11;9.48;;;3.80;;
51368;SDS011;37459;51.416;5.502;2022-11-22T00:36:37;11.32;;;4.05;;
51368;SDS011;37459;51.416;5.502;2022-11-22T00:39:04;11.15;;;3.92;;
51368;SDS011;37459;51.416;5.502;2022-11-22T00:41:30;6.60;;;3.63;;
51368;SDS011;37459;51.416;5.502;2022-11-22T00:43:57;9.10;;;3.85;;
51368;SDS011;37459;51.416;5.502;2022-11-22T00:46:23;12.98;;;4.15;;
51368;SDS011;37459;51.416;5.502;2022-11-22T00:48:51;8.63;;;3.20;;
51368;SDS011;37459;51.416;5.502;2022-11-22T00:51:18;8.20;;;3.90;;
51368;SDS011;37459;51.416;5.502;2022-11-22T00:53:44;7.65;;;3.38;;
51368;SDS011;37459;51.416;5.502;2022-11-22T00:56:11;9.73;;;3.55;;
51368;SDS011;37459;51.416;5.502;2022-11-22T00:58:37;9.82;;;3.50;;
51368;SDS011;37459;51.416;5.502;2022-11-22T01:01:04;9.23;;;3.55;;
51368;SDS011;37459;51.416;5.502;2022-11-22T01:03:30;9.38;;;3.80;;
51368;SDS011;37459;51.416;5.502;2022-11-22T01:05:58;8.40;;;3.60;;
51368;SDS011;37459;51.416;5.502;2022-11-22T01:08:25;10.27;;;3.53;;
51368;SDS011;37459;51.416;5.502;2022-11-22T01:10:55;8.40;;;3.40;;
51368;SDS011;37459;51.416;5.502;2022-11-22T01:13:22;7.90;;;3.15;;
51368;SDS011;37459;51.416;5.502;2022-11-22T01:15:48;7.95;;;3.20;;
51368;SDS011;37459;51.416;5.502;2022-11-22T01:18:15;9.15;;;3.42;;
51368;SDS011;37459;51.416;5.502;2022-11-22T01:20:41;8.57;;;3.08;;
51368;SDS011;37459;51.416;5.502;2022-11-22T01:23:09;9.43;;;3.42;;
51368;SDS011;37459;51.416;5.502;2022-11-22T01:25:36;9.13;;;3.10;;
51368;SDS011;37459;51.416;5.502;2022-11-22T01:28:02;10.60;;;3.53;;
51368;SDS011;37459;51.416;5.502;2022-11-22T01:30:29;7.85;;;2.83;;
51368;SDS011;37459;51.416;5.502;2022-11-22T01:32:56;7.25;;;2.80;;
51368;SDS011;37459;51.416;5.502;2022-11-22T01:35:22;12.63;;;3.25;;
51368;SDS011;37459;51.416;5.502;2022-11-22T01:37:49;12.43;;;2.92;;
51368;SDS011;37459;51.416;5.502;2022-11-22T01:40:17;11.23;;;3.13;;
51368;SDS011;37459;51.416;5.502;2022-11-22T01:42:45;12.15;;;3.03;;
51368;SDS011;37459;51.416;5.502;2022-11-22T01:48:06;10.73;;;3.08;;
51368;SDS011;37459;51.416;5.502;2022-11-22T01:50:42;13.73;;;2.95;;
51368;SDS011;37459;51.416;5.502;2022-11-22T01:53:12;13.52;;;2.80;;
51368;SDS011;37459;51.416;5.502;2022-11-22T01:55:43;9.13;;;2.80;;
51368;SDS011;37459;51.416;5.502;2022-11-22T01:58:11;9.65;;;2.78;;
51368;SDS011;37459;51.416;5.502;2022-11-22T02:00:40;17.52;;;2.67;;
51368;SDS011;37459;51.416;5.502;2022-11-22T02:03:09;10.98;;;2.83;;
51368;SDS011;37459;51.416;5.502;2022-11-22T02:05:37;12.20;;;3.10;;
51368;SDS011;37459;51.416;5.502;2022-11-22T02:08:04;12.15;;;2.65;;
51368;SDS011;37459;51.416;5.502;2022-11-22T02:10:35;13.35;;;2.60;;
51368;SDS011;37459;51.416;5.502;2022-11-22T02:13:08;8.75;;;2.72;;
51368;SDS011;37459;51.416;5.502;2022-11-22T02:15:36;12.38;;;2.53;;
51368;SDS011;37459;51.416;5.502;2022-11-22T02:18:02;11.52;;;3.15;;
51368;SDS011;37459;51.416;5.502;2022-11-22T02:20:29;12.18;;;3.15;;
51368;SDS011;37459;51.416;5.502;2022-11-22T02:22:57;10.50;;;2.90;;
51368;SDS011;37459;51.416;5.502;2022-11-22T02:25:29;14.25;;;3.00;;
51368;SDS011;37459;51.416;5.502;2022-11-22T02:28:03;15.35;;;3.20;;
51368;SDS011;37459;51.416;5.502;2022-11-22T02:30:30;16.83;;;3.85;;
51368;SDS011;37459;51.416;5.502;2022-11-22T02:32:56;16.42;;;2.80;;
51368;SDS011;37459;51.416;5.502;2022-11-22T02:35:25;14.38;;;2.92;;
51368;SDS011;37459;51.416;5.502;2022-11-22T02:37:54;13.38;;;2.88;;
51368;SDS011;37459;51.416;5.502;2022-11-22T02:40:22;16.45;;;2.88;;
51368;SDS011;37459;51.416;5.502;2022-11-22T02:42:51;14.20;;;2.75;;
51368;SDS011;37459;51.416;5.502;2022-11-22T02:45:23;13.80;;;2.45;;
51368;SDS011;37459;51.416;5.502;2022-11-22T02:47:49;18.27;;;2.67;;
51368;SDS011;37459;51.416;5.502;2022-11-22T02:50:16;11.98;;;2.78;;
51368;SDS011;37459;51.416;5.502;2022-11-22T02:52:42;17.73;;;3.65;;
51368;SDS011;37459;51.416;5.502;2022-11-22T02:55:09;17.17;;;3.28;;
51368;SDS011;37459;51.416;5.502;2022-11-22T02:57:35;11.80;;;2.85;;
51368;SDS011;37459;51.416;5.502;2022-11-22T03:00:02;14.32;;;3.03;;
51368;SDS011;37459;51.416;5.502;2022-11-22T03:02:30;12.65;;;2.60;;
51368;SDS011;37459;51.416;5.502;2022-11-22T03:04:57;14.55;;;2.85;;
51368;SDS011;37459;51.416;5.502;2022-11-22T03:07:23;13.07;;;2.75;;
51368;SDS011;37459;51.416;5.502;2022-11-22T03:09:50;19.15;;;3.35;;
51368;SDS011;37459;51.416;5.502;2022-11-22T03:12:16;19.27;;;3.10;;
51368;SDS011;37459;51.416;5.502;2022-11-22T03:14:43;14.38;;;3.38;;
51368;SDS011;37459;51.416;5.502;2022-11-22T03:17:09;16.17;;;2.60;;
51368;SDS011;37459;51.416;5.502;2022-11-22T03:19:39;14.55;;;2.90;;
51368;SDS011;37459;51.416;5.502;2022-11-22T03:22:06;11.75;;;2.97;;
51368;SDS011;37459;51.416;5.502;2022-11-22T03:24:32;15.05;;;2.72;;
51368;SDS011;37459;51.416;5.502;2022-11-22T03:26:59;13.23;;;2.70;;
51368;SDS011;37459;51.416;5.502;2022-11-22T03:29:25;13.27;;;3.08;;
51368;SDS011;37459;51.416;5.502;2022-11-22T03:31:52;20.60;;;3.45;;
51368;SDS011;37459;51.416;5.502;2022-11-22T03:34:18;12.48;;;2.28;;
51368;SDS011;37459;51.416;5.502;2022-11-22T03:36:46;14.20;;;2.85;;
51368;SDS011;37459;51.416;5.502;2022-11-22T03:39:13;10.63;;;2.47;;
51368;SDS011;37459;51.416;5.502;2022-11-22T03:41:39;17.67;;;3.13;;
51368;SDS011;37459;51.416;5.502;2022-11-22T03:44:06;8.82;;;2.63;;
51368;SDS011;37459;51.416;5.502;2022-11-22T03:46:32;11.70;;;2.80;;
51368;SDS011;37459;51.416;5.502;2022-11-22T03:48:59;9.95;;;2.45;;
51368;SDS011;37459;51.416;5.502;2022-11-22T03:51:25;9.48;;;3.00;;
51368;SDS011;37459;51.416;5.502;2022-11-22T03:53:53;14.48;;;2.70;;
51368;SDS011;37459;51.416;5.502;2022-11-22T03:56:20;10.88;;;2.60;;
51368;SDS011;37459;51.416;5.502;2022-11-22T03:58:46;13.70;;;2.67;;
51368;SDS011;37459;51.416;5.502;2022-11-22T04:01:13;15.85;;;3.05;;
51368;SDS011;37459;51.416;5.502;2022-11-22T04:03:39;12.85;;;2.80;;
51368;SDS011;37459;51.416;5.502;2022-11-22T04:06:06;19.08;;;2.95;;
51368;SDS011;37459;51.416;5.502;2022-11-22T04:08:32;13.63;;;2.80;;
51368;SDS011;37459;51.416;5.502;2022-11-22T04:11:00;12.52;;;2.90;;
51368;SDS011;37459;51.416;5.502;2022-11-22T04:13:27;15.18;;;2.83;;
51368;SDS011;37459;51.416;5.502;2022-11-22T04:16:07;15.20;;;2.67;;
51368;SDS011;37459;51.416;5.502;2022-11-22T04:18:34;13.57;;;2.70;;
51368;SDS011;37459;51.416;5.502;2022-11-22T04:21:00;11.27;;;2.50;;
51368;SDS011;37459;51.416;5.502;2022-11-22T04:23:44;11.70;;;2.78;;
51368;SDS011;37459;51.416;5.502;2022-11-22T04:26:32;11.55;;;2.50;;
51368;SDS011;37459;51.416;5.502;2022-11-22T04:28:57;13.88;;;2.63;;
51368;SDS011;37459;51.416;5.502;2022-11-22T04:31:24;15.50;;;2.80;;
51368;SDS011;37459;51.416;5.502;2022-11-22T04:34:08;9.27;;;2.20;;
51368;SDS011;37459;51.416;5.502;2022-11-22T04:36:34;14.15;;;2.40;;
51368;SDS011;37459;51.416;5.502;2022-11-22T04:39:01;15.02;;;2.13;;
51368;SDS011;37459;51.416;5.502;2022-11-22T04:41:27;18.25;;;2.60;;
51368;SDS011;37459;51.416;5.502;2022-11-22T04:43:55;11.57;;;2.20;;
51368;SDS011;37459;51.416;5.502;2022-11-22T04:46:45;10.75;;;2.40;;
51368;SDS011;37459;51.416;5.502;2022-11-22T04:49:11;16.20;;;2.30;;
51368;SDS011;37459;51.416;5.502;2022-11-22T04:51:38;13.18;;;2.75;;
51368;SDS011;37459;51.416;5.502;2022-11-22T04:54:22;15.10;;;2.53;;
51368;SDS011;37459;51.416;5.502;2022-11-22T04:56:48;13.95;;;2.03;;
51368;SDS011;37459;51.416;5.502;2022-11-22T04:59:16;10.02;;;2.30;;
51368;SDS011;37459;51.416;5.502;2022-11-22T05:01:43;14.48;;;2.72;;
51368;SDS011;37459;51.416;5.502;2022-11-22T05:04:09;9.32;;;2.10;;
51368;SDS011;37459;51.416;5.502;2022-11-22T05:06:36;14.95;;;2.70;;
51368;SDS011;37459;51.416;5.502;2022-11-22T05:09:03;11.80;;;2.75;;
51368;SDS011;37459;51.416;5.502;2022-11-22T05:11:29;13.98;;;2.60;;
51368;SDS011;37459;51.416;5.502;2022-11-22T05:13:56;14.75;;;2.80;;
51368;SDS011;37459;51.416;5.502;2022-11-22T05:16:23;14.25;;;2.60;;
51368;SDS011;37459;51.416;5.502;2022-11-22T05:18:50;13.60;;;2.35;;
51368;SDS011;37459;51.416;5.502;2022-11-22T05:21:24;11.25;;;2.65;;
51368;SDS011;37459;51.416;5.502;2022-11-22T05:23:51;9.38;;;2.45;;
51368;SDS011;37459;51.416;5.502;2022-11-22T05:26:19;13.38;;;2.60;;
51368;SDS011;37459;51.416;5.502;2022-11-22T05:28:47;10.30;;;2.10;;
51368;SDS011;37459;51.416;5.502;2022-11-22T05:31:14;11.57;;;2.20;;
51368;SDS011;37459;51.416;5.502;2022-11-22T05:33:44;9.13;;;2.33;;
51368;SDS011;37459;51.416;5.502;2022-11-22T05:36:11;11.23;;;2.30;;
51368;SDS011;37459;51.416;5.502;2022-11-22T05:38:38;12.13;;;2.70;;
51368;SDS011;37459;51.416;5.502;2022-11-22T05:41:05;16.02;;;2.55;;
51368;SDS011;37459;51.416;5.502;2022-11-22T05:43:33;15.70;;;2.97;;
51368;SDS011;37459;51.416;5.502;2022-11-22T05:46:04;12.18;;;2.20;;
51368;SDS011;37459;51.416;5.502;2022-11-22T05:48:32;14.63;;;2.53;;
51368;SDS011;37459;51.416;5.502;2022-11-22T05:51:03;12.82;;;2.53;;
51368;SDS011;37459;51.416;5.502;2022-11-22T05:53:30;14.35;;;2.25;;
51368;SDS011;37459;51.416;5.502;2022-11-22T05:55:56;10.63;;;2.15;;
51368;SDS011;37459;51.416;5.502;2022-11-22T05:58:23;19.38;;;6.60;;
51368;SDS011;37459;51.416;5.502;2022-11-22T06:00:50;13.85;;;4.82;;
51368;SDS011;37459;51.416;5.502;2022-11-22T06:03:16;12.70;;;3.58;;
51368;SDS011;37459;51.416;5.502;2022-11-22T06:05:49;11.20;;;2.53;;
51368;SDS011;37459;51.416;5.502;2022-11-22T06:08:17;10.05;;;2.25;;
51368;SDS011;37459;51.416;5.502;2022-11-22T06:10:44;10.43;;;2.33;;
51368;SDS011;37459;51.416;5.502;2022-11-22T06:13:10;10.35;;;2.30;;
51368;SDS011;37459;51.416;5.502;2022-11-22T06:15:37;10.73;;;2.30;;
51368;SDS011;37459;51.416;5.502;2022-11-22T06:18:03;7.78;;;2.10;;
51368;SDS011;37459;51.416;5.502;2022-11-22T06:20:30;10.98;;;2.22;;
51368;SDS011;37459;51.416;5.502;2022-11-22T06:22:56;7.82;;;2.20;;
51368;SDS011;37459;51.416;5.502;2022-11-22T06:25:24;14.45;;;4.55;;
51368;SDS011;37459;51.416;5.502;2022-11-22T06:27:51;14.20;;;3.72;;
51368;SDS011;37459;51.416;5.502;2022-11-22T06:30:17;14.65;;;2.83;;
51368;SDS011;37459;51.416;5.502;2022-11-22T06:32:44;10.10;;;2.22;;
51368;SDS011;37459;51.416;5.502;2022-11-22T06:35:10;12.52;;;2.47;;
51368;SDS011;37459;51.416;5.502;2022-11-22T06:37:37;14.23;;;3.00;;
51368;SDS011;37459;51.416;5.502;2022-11-22T06:40:04;8.68;;;2.50;;
51368;SDS011;37459;51.416;5.502;2022-11-22T06:42:36;7.45;;;2.30;;
51368;SDS011;37459;51.416;5.502;2022-11-22T06:45:03;15.82;;;3.10;;
51368;SDS011;37459;51.416;5.502;2022-11-22T06:47:30;15.02;;;2.80;;
51368;SDS011;37459;51.416;5.502;2022-11-22T06:49:57;11.65;;;2.80;;
51368;SDS011;37459;51.416;5.502;2022-11-22T06:52:23;13.75;;;2.75;;
51368;SDS011;37459;51.416;5.502;2022-11-22T06:54:50;17.00;;;2.58;;
51368;SDS011;37459;51.416;5.502;2022-11-22T06:57:17;14.00;;;2.38;;
51368;SDS011;37459;51.416;5.502;2022-11-22T06:59:45;10.80;;;2.22;;
51368;SDS011;37459;51.416;5.502;2022-11-22T07:02:12;12.55;;;3.30;;
51368;SDS011;37459;51.416;5.502;2022-11-22T07:04:38;11.95;;;3.05;;
51368;SDS011;37459;51.416;5.502;2022-11-22T07:07:05;14.25;;;2.92;;
51368;SDS011;37459;51.416;5.502;2022-11-22T07:09:31;11.10;;;2.50;;
51368;SDS011;37459;51.416;5.502;2022-11-22T07:11:58;14.75;;;2.90;;
51368;SDS011;37459;51.416;5.502;2022-11-22T07:14:25;10.88;;;2.70;;
51368;SDS011;37459;51.416;5.502;2022-11-22T07:16:53;8.75;;;2.60;;
51368;SDS011;37459;51.416;5.502;2022-11-22T07:19:19;11.25;;;2.45;;
51368;SDS011;37459;51.416;5.502;2022-11-22T07:21:46;11.07;;;2.22;;
51368;SDS011;37459;51.416;5.502;2022-11-22T07:24:13;10.68;;;2.67;;
51368;SDS011;37459;51.416;5.502;2022-11-22T07:26:40;14.48;;;2.85;;
51368;SDS011;37459;51.416;5.502;2022-11-22T07:29:06;10.52;;;2.40;;
51368;SDS011;37459;51.416;5.502;2022-11-22T07:31:34;10.95;;;2.33;;
51368;SDS011;37459;51.416;5.502;2022-11-22T07:34:02;12.43;;;3.00;;
51368;SDS011;37459;51.416;5.502;2022-11-22T07:36:28;9.85;;;2.50;;
51368;SDS011;37459;51.416;5.502;2022-11-22T07:38:56;10.88;;;2.28;;
51368;SDS011;37459;51.416;5.502;2022-11-22T07:41:23;14.35;;;2.50;;
51368;SDS011;37459;51.416;5.502;2022-11-22T07:43:50;10.10;;;2.40;;
51368;SDS011;37459;51.416;5.502;2022-11-22T07:46:19;8.63;;;2.13;;
51368;SDS011;37459;51.416;5.502;2022-11-22T07:48:48;10.13;;;2.47;;
51368;SDS011;37459;51.416;5.502;2022-11-22T07:51:16;10.77;;;2.38;;
51368;SDS011;37459;51.416;5.502;2022-11-22T07:53:43;11.52;;;2.10;;
51368;SDS011;37459;51.416;5.502;2022-11-22T07:56:10;12.63;;;2.08;;
51368;SDS011;37459;51.416;5.502;2022-11-22T07:58:37;12.63;;;2.50;;
51368;SDS011;37459;51.416;5.502;2022-11-22T08:01:05;10.02;;;2.05;;
51368;SDS011;37459;51.416;5.502;2022-11-22T08:03:32;9.30;;;2.40;;
51368;SDS011;37459;51.416;5.502;2022-11-22T08:05:59;11.10;;;2.10;;
51368;SDS011;37459;51.416;5.502;2022-11-22T08:08:27;12.30;;;2.00;;
51368;SDS011;37459;51.416;5.502;2022-11-22T08:10:53;8.02;;;2.08;;
51368;SDS011;37459;51.416;5.502;2022-11-22T08:13:20;8.85;;;2.38;;
51368;SDS011;37459;51.416;5.502;2022-11-22T08:15:47;8.63;;;2.08;;
51368;SDS011;37459;51.416;5.502;2022-11-22T08:18:13;13.38;;;2.15;;
51368;SDS011;37459;51.416;5.502;2022-11-22T08:20:40;10.10;;;2.25;;
51368;SDS011;37459;51.416;5.502;2022-11-22T08:23:07;8.30;;;2.38;;
51368;SDS011;37459;51.416;5.502;2022-11-22T08:25:34;10.13;;;2.10;;
51368;SDS011;37459;51.416;5.502;2022-11-22T08:28:01;10.95;;;2.50;;
51368;SDS011;37459;51.416;5.502;2022-11-22T08:30:28;15.05;;;2.58;;
51368;SDS011;37459;51.416;5.502;2022-11-22T08:32:54;14.43;;;2.45;;
51368;SDS011;37459;51.416;5.502;2022-11-22T08:35:21;13.48;;;2.25;;
51368;SDS011;37459;51.416;5.502;2022-11-22T08:37:48;10.70;;;2.00;;
51368;SDS011;37459;51.416;5.502;2022-11-22T08:40:15;11.05;;;2.20;;
51368;SDS011;37459;51.416;5.502;2022-11-22T08:42:43;10.52;;;2.35;;
51368;SDS011;37459;51.416;5.502;2022-11-22T08:45:09;9.80;;;2.30;;
51368;SDS011;37459;51.416;5.502;2022-11-22T08:47:36;8.52;;;2.55;;
51368;SDS011;37459;51.416;5.502;2022-11-22T08:50:03;13.23;;;2.10;;
51368;SDS011;37459;51.416;5.502;2022-11-22T08:52:30;7.68;;;1.90;;
51368;SDS011;37459;51.416;5.502;2022-11-22T08:54:56;11.13;;;2.30;;
51368;SDS011;37459;51.416;5.502;2022-11-22T08:57:23;10.15;;;2.15;;
51368;SDS011;37459;51.416;5.502;2022-11-22T08:59:51;7.70;;;1.95;;
51368;SDS011;37459;51.416;5.502;2022-11-22T09:02:17;7.82;;;2.30;;
51368;SDS011;37459;51.416;5.502;2022-11-22T09:04:44;8.32;;;2.22;;
51368;SDS011;37459;51.416;5.502;2022-11-22T09:07:10;4.30;;;1.77;;
51368;SDS011;37459;51.416;5.502;2022-11-22T09:09:37;9.63;;;2.40;;
51368;SDS011;37459;51.416;5.502;2022-11-22T09:12:03;9.82;;;2.10;;
51368;SDS011;37459;51.416;5.502;2022-11-22T09:14:30;5.85;;;1.90;;
51368;SDS011;37459;51.416;5.502;2022-11-22T09:16:58;7.82;;;1.90;;
51368;SDS011;37459;51.416;5.502;2022-11-22T09:19:25;12.45;;;2.33;;
51368;SDS011;37459;51.416;5.502;2022-11-22T09:21:51;10.68;;;2.08;;
51368;SDS011;37459;51.416;5.502;2022-11-22T09:24:18;8.60;;;1.88;;
51368;SDS011;37459;51.416;5.502;2022-11-22T09:26:44;8.40;;;2.05;;
51368;SDS011;37459;51.416;5.502;2022-11-22T09:29:11;8.27;;;2.05;;
51368;SDS011;37459;51.416;5.502;2022-11-22T09:31:38;9.88;;;2.13;;
51368;SDS011;37459;51.416;5.502;2022-11-22T09:34:06;9.63;;;2.30;;
51368;SDS011;37459;51.416;5.502;2022-11-22T09:36:32;7.90;;;1.90;;
51368;SDS011;37459;51.416;5.502;2022-11-22T09:38:59;7.50;;;1.80;;
51368;SDS011;37459;51.416;5.502;2022-11-22T09:44:35;6.72;;;1.90;;
51368;SDS011;37459;51.416;5.502;2022-11-22T09:47:13;4.63;;;1.70;;
51368;SDS011;37459;51.416;5.502;2022-11-22T09:49:55;6.80;;;1.88;;
51368;SDS011;37459;51.416;5.502;2022-11-22T09:52:31;8.30;;;1.80;;
51368;SDS011;37459;51.416;5.502;2022-11-22T09:55:03;7.75;;;2.20;;
51368;SDS011;37459;51.416;5.502;2022-11-22T09:57:36;7.00;;;1.88;;
51368;SDS011;37459;51.416;5.502;2022-11-22T10:00:10;8.07;;;1.73;;
51368;SDS011;37459;51.416;5.502;2022-11-22T10:02:44;9.48;;;1.95;;
51368;SDS011;37459;51.416;5.502;2022-11-22T10:05:18;6.25;;;1.73;;
51368;SDS011;37459;51.416;5.502;2022-11-22T10:07:48;7.47;;;1.70;;
51368;SDS011;37459;51.416;5.502;2022-11-22T10:10:21;4.78;;;1.48;;
51368;SDS011;37459;51.416;5.502;2022-11-22T10:12:54;7.47;;;1.70;;
51368;SDS011;37459;51.416;5.502;2022-11-22T10:15:25;7.95;;;1.80;;
51368;SDS011;37459;51.416;5.502;2022-11-22T10:17:57;6.47;;;1.90;;
51368;SDS011;37459;51.416;5.502;2022-11-22T10:20:31;7.18;;;1.70;;
51368;SDS011;37459;51.416;5.502;2022-11-22T10:23:00;8.00;;;1.67;;
51368;SDS011;37459;51.416;5.502;2022-11-22T10:25:30;5.05;;;1.50;;
51368;SDS011;37459;51.416;5.502;2022-11-22T10:28:07;5.32;;;1.83;;
51368;SDS011;37459;51.416;5.502;2022-11-22T10:30:42;6.97;;;1.63;;
51368;SDS011;37459;51.416;5.502;2022-11-22T10:33:17;5.05;;;1.60;;
51368;SDS011;37459;51.416;5.502;2022-11-22T10:35:51;3.45;;;1.52;;
51368;SDS011;37459;51.416;5.502;2022-11-22T10:38:33;4.70;;;1.67;;
51368;SDS011;37459;51.416;5.502;2022-11-22T10:41:08;4.43;;;1.50;;
51368;SDS011;37459;51.416;5.502;2022-11-22T10:46:14;7.10;;;1.70;;
51368;SDS011;37459;51.416;5.502;2022-11-22T10:48:48;3.22;;;1.60;;
51368;SDS011;37459;51.416;5.502;2022-11-22T10:51:24;4.82;;;1.70;;
51368;SDS011;37459;51.416;5.502;2022-11-22T10:54:01;5.30;;;1.50;;
51368;SDS011;37459;51.416;5.502;2022-11-22T10:56:37;5.65;;;1.70;;
51368;SDS011;37459;51.416;5.502;2022-11-22T10:59:13;3.78;;;1.40;;
51368;SDS011;37459;51.416;5.502;2022-11-22T11:01:52;4.10;;;1.50;;
51368;SDS011;37459;51.416;5.502;2022-11-22T11:04:28;4.22;;;1.40;;
51368;SDS011;37459;51.416;5.502;2022-11-22T11:06:59;2.85;;;1.30;;
51368;SDS011;37459;51.416;5.502;2022-11-22T11:09:29;2.90;;;1.30;;
51368;SDS011;37459;51.416;5.502;2022-11-22T11:12:00;2.53;;;0.98;;
51368;SDS011;37459;51.416;5.502;2022-11-22T11:14:31;4.75;;;1.42;;
51368;SDS011;37459;51.416;5.502;2022-11-22T11:17:02;3.15;;;1.17;;
51368;SDS011;37459;51.416;5.502;2022-11-22T11:19:32;3.13;;;1.08;;
51368;SDS011;37459;51.416;5.502;2022-11-22T11:22:10;2.45;;;1.00;;
51368;SDS011;37459;51.416;5.502;2022-11-22T11:24:40;3.97;;;1.20;;
51368;SDS011;37459;51.416;5.502;2022-11-22T11:27:08;2.88;;;1.10;;
51368;SDS011;37459;51.416;5.502;2022-11-22T11:29:42;3.60;;;1.20;;
51368;SDS011;37459;51.416;5.502;2022-11-22T11:32:12;3.38;;;1.08;;
51368;SDS011;37459;51.416;5.502;2022-11-22T11:34:41;5.60;;;1.50;;
51368;SDS011;37459;51.416;5.502;2022-11-22T11:37:20;4.95;;;1.08;;
51368;SDS011;37459;51.416;5.502;2022-11-22T11:39:48;3.65;;;1.00;;
51368;SDS011;37459;51.416;5.502;2022-11-22T11:42:25;2.92;;;0.85;;
51368;SDS011;37459;51.416;5.502;2022-11-22T11:44:53;2.70;;;0.90;;
51368;SDS011;37459;51.416;5.502;2022-11-22T11:47:40;2.55;;;0.80;;
51368;SDS011;37459;51.416;5.502;2022-11-22T11:50:12;1.92;;;0.80;;
51368;SDS011;37459;51.416;5.502;2022-11-22T11:52:48;2.83;;;0.90;;
51368;SDS011;37459;51.416;5.502;2022-11-22T11:55:16;2.50;;;0.90;;
51368;SDS011;37459;51.416;5.502;2022-11-22T11:57:43;4.60;;;0.90;;
51368;SDS011;37459;51.416;5.502;2022-11-22T12:00:18;3.75;;;0.90;;
51368;SDS011;37459;51.416;5.502;2022-11-22T12:02:46;3.25;;;0.90;;
51368;SDS011;37459;51.416;5.502;2022-11-22T12:05:23;2.80;;;0.77;;
51368;SDS011;37459;51.416;5.502;2022-11-22T12:07:53;2.53;;;0.90;;
51368;SDS011;37459;51.416;5.502;2022-11-22T12:10:28;2.40;;;0.70;;
51368;SDS011;37459;51.416;5.502;2022-11-22T12:12:58;2.72;;;0.70;;
51368;SDS011;37459;51.416;5.502;2022-11-22T12:15:31;2.40;;;0.70;;
51368;SDS011;37459;51.416;5.502;2022-11-22T12:18:06;7.45;;;1.00;;
51368;SDS011;37459;51.416;5.502;2022-11-22T12:20:48;1.13;;;0.60;;
51368;SDS011;37459;51.416;5.502;2022-11-22T12:23:22;1.83;;;0.70;;
51368;SDS011;37459;51.416;5.502;2022-11-22T12:25:54;1.92;;;0.50;;
51368;SDS011;37459;51.416;5.502;2022-11-22T12:28:23;2.17;;;0.70;;
51368;SDS011;37459;51.416;5.502;2022-11-22T12:30:52;1.70;;;0.57;;
51368;SDS011;37459;51.416;5.502;2022-11-22T12:33:23;1.63;;;0.60;;
51368;SDS011;37459;51.416;5.502;2022-11-22T12:35:55;5.35;;;0.70;;
51368;SDS011;37459;51.416;5.502;2022-11-22T12:38:24;1.88;;;0.70;;
51368;SDS011;37459;51.416;5.502;2022-11-22T12:40:56;4.35;;;0.70;;
51368;SDS011;37459;51.416;5.502;2022-11-22T12:43:26;1.40;;;0.60;;
51368;SDS011;37459;51.416;5.502;2022-11-22T12:45:56;1.25;;;0.63;;
51368;SDS011;37459;51.416;5.502;2022-11-22T12:48:29;1.30;;;0.60;;
51368;SDS011;37459;51.416;5.502;2022-11-22T12:51:02;2.95;;;0.60;;
51368;SDS011;37459;51.416;5.502;2022-11-22T12:53:35;2.08;;;0.65;;
51368;SDS011;37459;51.416;5.502;2022-11-22T12:56:08;1.10;;;0.50;;
51368;SDS011;37459;51.416;5.502;2022-11-22T12:58:43;6.13;;;0.70;;
51368;SDS011;37459;51.416;5.502;2022-11-22T13:01:18;1.07;;;0.50;;
51368;SDS011;37459;51.416;5.502;2022-11-22T13:03:51;1.05;;;0.47;;
51368;SDS011;37459;51.416;5.502;2022-11-22T13:06:22;2.00;;;0.50;;
51368;SDS011;37459;51.416;5.502;2022-11-22T13:08:54;2.08;;;0.50;;
51368;SDS011;37459;51.416;5.502;2022-11-22T13:11:27;2.03;;;0.60;;
51368;SDS011;37459;51.416;5.502;2022-11-22T13:13:57;2.95;;;0.60;;
51368;SDS011;37459;51.416;5.502;2022-11-22T13:16:30;0.98;;;0.50;;
51368;SDS011;37459;51.416;5.502;2022-11-22T13:18:59;2.15;;;0.70;;
51368;SDS011;37459;51.416;5.502;2022-11-22T13:21:29;1.30;;;0.60;;
51368;SDS011;37459;51.416;5.502;2022-11-22T13:27:01;1.77;;;0.60;;
51368;SDS011;37459;51.416;5.502;2022-11-22T13:29:38;2.10;;;0.73;;
51368;SDS011;37459;51.416;5.502;2022-11-22T13:32:13;1.40;;;0.55;;
51368;SDS011;37459;51.416;5.502;2022-11-22T13:34:57;1.48;;;0.60;;
51368;SDS011;37459;51.416;5.502;2022-11-22T13:37:26;1.33;;;0.60;;
51368;SDS011;37459;51.416;5.502;2022-11-22T13:39:56;0.95;;;0.47;;
51368;SDS011;37459;51.416;5.502;2022-11-22T13:42:36;1.75;;;0.70;;
51368;SDS011;37459;51.416;5.502;2022-11-22T13:45:10;1.88;;;0.70;;
51368;SDS011;37459;51.416;5.502;2022-11-22T13:47:45;1.40;;;0.55;;
51368;SDS011;37459;51.416;5.502;2022-11-22T13:53:23;1.65;;;0.60;;
51368;SDS011;37459;51.416;5.502;2022-11-22T13:55:57;1.75;;;0.60;;
51368;SDS011;37459;51.416;5.502;2022-11-22T13:59:02;2.38;;;0.70;;
51368;SDS011;37459;51.416;5.502;2022-11-22T14:04:26;1.70;;;0.55;;
51368;SDS011;37459;51.416;5.502;2022-11-22T14:06:59;2.25;;;0.77;;
51368;SDS011;37459;51.416;5.502;2022-11-22T14:09:32;1.95;;;0.60;;
51368;SDS011;37459;51.416;5.502;2022-11-22T14:12:15;2.45;;;0.60;;
51368;SDS011;37459;51.416;5.502;2022-11-22T14:15:07;2.00;;;0.60;;
51368;SDS011;37459;51.416;5.502;2022-11-22T14:17:42;1.20;;;0.60;;
51368;SDS011;37459;51.416;5.502;2022-11-22T14:20:22;2.27;;;0.50;;
51368;SDS011;37459;51.416;5.502;2022-11-22T14:23:00;1.83;;;0.60;;
51368;SDS011;37459;51.416;5.502;2022-11-22T14:25:35;1.23;;;0.60;;
51368;SDS011;37459;51.416;5.502;2022-11-22T14:28:21;1.33;;;0.63;;
51368;SDS011;37459;51.416;5.502;2022-11-22T14:31:10;3.67;;;0.70;;
51368;SDS011;37459;51.416;5.502;2022-11-22T14:33:42;4.38;;;0.60;;
51368;SDS011;37459;51.416;5.502;2022-11-22T14:36:41;2.67;;;0.60;;
51368;SDS011;37459;51.416;5.502;2022-11-22T14:45:15;0.90;;;0.50;;
51368;SDS011;37459;51.416;5.502;2022-11-22T14:47:50;1.25;;;0.47;;
51368;SDS011;37459;51.416;5.502;2022-11-22T14:50:24;2.20;;;0.50;;
51368;SDS011;37459;51.416;5.502;2022-11-22T14:52:53;2.40;;;0.55;;
51368;SDS011;37459;51.416;5.502;2022-11-22T14:55:24;1.70;;;0.57;;
51368;SDS011;37459;51.416;5.502;2022-11-22T14:57:56;1.83;;;0.68;;
51368;SDS011;37459;51.416;5.502;2022-11-22T15:00:27;2.30;;;0.60;;
51368;SDS011;37459;51.416;5.502;2022-11-22T15:05:52;1.00;;;0.50;;
51368;SDS011;37459;51.416;5.502;2022-11-22T15:08:34;0.90;;;0.50;;
51368;SDS011;37459;51.416;5.502;2022-11-22T15:14:15;2.08;;;0.60;;
51368;SDS011;37459;51.416;5.502;2022-11-22T15:17:11;1.92;;;0.60;;
51368;SDS011;37459;51.416;5.502;2022-11-22T15:19:42;1.95;;;0.80;;
51368;SDS011;37459;51.416;5.502;2022-11-22T15:22:10;1.80;;;0.60;;
51368;SDS011;37459;51.416;5.502;2022-11-22T15:24:45;1.80;;;0.75;;
51368;SDS011;37459;51.416;5.502;2022-11-22T15:27:18;1.80;;;0.77;;